Adaven, Nevada
Current Conditions -  °F | °C
As of 1:56 AM on Saturday 01 Nov 2014 (Local Time) from KTPH Reporting Station
Clear Clear  
Wind Chill: 50°   Ceiling: Unl
Heat Index: 50°   Visibility: 10mi
Dew Point: 37°   Wind: 18mph
Humidity: 61%   Direction: 190°S
Pressure: 29.65"   Gusts: NA
Location:  38.13°N, 115.6°W
Report Text: KTPH 010856Z AUTO 19016KT 10SM CLR 10/03 A2965 RMK AO2 PK WND 19028/0843 SLP989 T01000028 56014
Loading
Personal Weather Stations






























Interactive Weather Map
Tropical Storm Tracking
New forecast layout! Learn more

10-Day Weather Forecast

Advertisements
Track Severe Weather on mobile